Saturday, November 17, 2018, 2:39 AM EST
Back to Local

KROC, Greater Rochester International

Location: Rochester, NY, United States Lat: 43.117
Local Time: 2:39 AM EST ( 7:39 GMT) Lon: -77.683
Time Zone: US/Eastern Elev: 557 ft

Show me the last for .
Show Decoded

2018-11-17 01:54 METAR KROC 170654Z 28011G16KT 10SM OVC050 03/01 A2995 RMK AO2 SLP151 T00330006 =
2018-11-17 00:54 METAR KROC 170554Z 26014KT 10SM OVC050 03/01 A2993 RMK AO2 SLP145 4/004 60000
                 T00330006 10033 20022 53014 =
2018-11-16 23:54 METAR KROC 170454Z 25014KT 8SM OVC045 03/01 A2991 RMK AO2 SLP138 T00280006
                 400281028 =
2018-11-16 22:54 METAR KROC 170354Z 27012KT 8SM OVC032 03/00 A2990 RMK AO2 SLP133 T00280000 =
2018-11-16 22:08 METAR KROC 170308Z 26012G21KT 9SM SCT016 OVC039 02/00 A2990 RMK AO2 T00220000 =
2018-11-16 21:54 METAR KROC 170254Z 27012G18KT 9SM BKN017 BKN030 OVC039 02/00 A2989 RMK AO2
                 SLP131 60000 T00220000 53022 =
2018-11-16 20:54 METAR KROC 170154Z 27014G20KT 10SM BKN018 OVC035 02/00 A2987 RMK AO2 SLP123
                 T00220000 =
2018-11-16 19:54 METAR KROC 170054Z 28011G21KT 10SM BKN019 BKN031 OVC038 02/00 A2984 RMK AO2
                 DZE40SNE40 SLP115 P0000 T00220000 =
2018-11-16 19:10 METAR KROC 170010Z 27010KT 9SM -SNDZ BKN023 OVC041 02/01 A2983 RMK AO2 P0000
                 T00220006 =
2018-11-16 18:54 METAR KROC 162354Z 26011KT 9SM -SNDZ SCT020 OVC041 02/01 A2982 RMK AO2 PRESRR
                 SLP109 PCPN VRY LGT 4/006 P0000 60003 T00220006 10022 20017 53024 =
2018-11-16 18:49 METAR KROC 162349Z 27011KT 9SM -SNDZ SCT018 OVC043 02/01 A2982 RMK AO2 PCPN VRY
                 LGT P0000 =
2018-11-16 18:25 METAR KROC 162325Z 26011KT 9SM -SNDZ BKN020 OVC045 02/01 A2980 RMK AO2 P0000
                 T00220006 =
2018-11-16 17:54 METAR KROC 162254Z 25011KT 8SM -SNDZ SCT020 BKN042 OVC050 02/01 A2980 RMK AO2
                 RAE16DZB16 SLP099 P0000 T00170006 =
2018-11-16 17:46 METAR KROC 162246Z 25010KT 9SM -SNDZ SCT018 BKN042 OVC050 02/01 A2979 RMK AO2
                 RAE16DZB16 P0000 T00170006 =
2018-11-16 16:54 METAR KROC 162154Z 26011KT 7SM -SNRA OVC016 02/01 A2977 RMK AO2 SLP091 P0000
                 T00170006 =
2018-11-16 15:54 METAR KROC 162054Z 27014G19KT 10SM -RASN BKN020 BKN033 OVC047 02/01 A2975 RMK
                 AO2 SNB36 SLP085 P0000 60003 T00220006 53016 =
2018-11-16 15:38 METAR KROC 162038Z 28011KT 9SM -RASN SCT019 BKN024 OVC047 02/01 A2975 =
2018-11-16 14:54 METAR KROC 161954Z 28013G24KT 10SM -RA FEW012 SCT025 OVC049 02/01 A2974 RMK AO2
                 SNE47 SLP078 P0001 T00220006 =
2018-11-16 14:42 METAR KROC 161942Z 28013G21KT 10SM -RASN SCT010 BKN025 OVC042 02/01 A2974
2018-11-16 13:54 METAR KROC 161854Z COR 25011KT 6SM -RASN BR OVC012 02/01 A2972 RMK AO2 SLP073
                 P0002 T00220011 =
2018-11-16 12:54 METAR KROC 161754Z 27009KT 4SM -SNRA BR BKN010 BKN024 OVC032 02/01 A2971 RMK AO2
                 RAB35 SLP069 4/007 933009 P0001 60004 T00170011 10022 21022 58001 =
2018-11-16 11:54 METAR KROC 161654Z 26009KT 3SM -SN BR FEW008 BKN013 OVC019 02/01 A2971 RMK AO2
                 SLP069 P0001 T00170006 =
2018-11-16 11:03 METAR KROC 161603Z 27012KT 4SM -SN BR BKN013 OVC022 02/01 A2972 RMK AO2 P0000
                 T00170006 =
2018-11-16 10:54 METAR KROC 161554Z 27010KT 2SM -SN BR OVC013 02/01 A2972 RMK AO2 SLP072 P0001
                 T00170006 =
2018-11-16 10:40 METAR KROC 161540Z 25006KT 4SM -SN BR FEW006 OVC017 01/00 A2972 RMK AO2 P0001
                 T00060000 =
2018-11-16 10:19 METAR KROC 161519Z 23006KT 2SM -SN BR FEW006 OVC022 01/00 A2971 RMK AO2 P0001
                 T00060000 =
2018-11-16 09:54 METAR KROC 161454Z 22004KT 7SM -SN SCT009 OVC022 00/00 A2971 RMK AO2 SLP069
                 P0000 60001 T00000000 58009 =
2018-11-16 09:35 METAR KROC 161435Z 23005KT 2SM -SN BR OVC008 M01/M01 A2972 RMK AO2 P0000
                 T10061006 =
2018-11-16 09:19 METAR KROC 161419Z 23006KT 3SM -SN BR SCT008 OVC014 M01/M01 A2972 RMK AO2 P0000
                 T10061011 =
2018-11-16 09:05 METAR KROC 161405Z 23006KT 1 1/2SM -SN BR OVC012 M01/M01 A2972 RMK AO2 P0000
                 T10061011 =
2018-11-16 08:54 METAR KROC 161354Z 23005KT 3SM -SN BR OVC012 M01/M02 A2972 RMK AO2 SLP073 P0000
                 T10111017 =
2018-11-16 08:46 METAR KROC 161346Z 24005KT 2 1/2SM -SN BR OVC012 M01/M01 A2972 RMK AO2 TWR VIS 3
                 P0000 T10111011 =
2018-11-16 07:54 METAR KROC 161254Z 23006KT 9SM -SN OVC011 M02/M02 A2973 RMK AO2 SLP076 PCPN VRY
                 LGT P0001 T10171022 =
2018-11-16 06:54 METAR KROC 161154Z 23005KT 9SM -SN OVC013 M02/M03 A2974 RMK AO2 SLP080 4/005
                 PCPN VRY LGT P0000 60021 70082 T10221028 11017 21028 56016 =
2018-11-16 05:54 METAR KROC 161054Z 23004KT 6SM -SN BR OVC014 M02/M03 A2975 RMK AO2 SLP084 P0001
                 T10221028 =
2018-11-16 05:27 METAR KROC 161027Z 24003KT 4SM -SN BR BKN017 OVC026 M02/M03 A2975 RMK AO2 P0001
                 T10221033 =
2018-11-16 04:54 METAR KROC 160954Z 14004KT 3SM -SN BR FEW017 OVC033 M03/M03 A2976 RMK AO2 SLP086
                 P0001 T10281028 =
2018-11-16 04:26 METAR KROC 160926Z 14006KT 3SM -SN BR BKN020 OVC036 M03/M03 A2977 RMK AO2 P0000
                 T10281033 =
2018-11-16 04:06 METAR KROC 160906Z 14008KT 2 1/2SM -SN BR OVC030 M03/M03 A2977 RMK AO2 P0000
                 T10281033 =
2018-11-16 03:54 METAR KROC 160854Z 13009KT 1 1/4SM -SN BR BKN018 OVC034 M03/M03 A2978 RMK AO2
                 PRESFR SLP095 P0006 60019 T10281033 58025 =
2018-11-16 03:15 METAR KROC 160815Z 15006KT 2 1/2SM -SN BR OVC026 M03/M04 A2982 RMK AO2 P0001
                 T10281039 =
2018-11-16 02:54 METAR KROC 160754Z 00000KT 2 1/2SM -SN BR OVC032 M03/M03 A2982 RMK AO2 SLP106
                 P0007 T10281033 =

Support USWX by starting your Amazon purchase here.